createdAt,value
2018-10-17T00:00:50.828Z,25.20
2018-10-17T00:01:50.294Z,24.70
2018-10-17T00:03:50.307Z,24.80
2018-10-17T00:05:50.451Z,24.30
2018-10-17T00:06:50.349Z,25.40
2018-10-17T00:07:50.363Z,25.20
2018-10-17T00:08:50.375Z,25.40
2018-10-17T00:09:50.388Z,25.40
2018-10-17T00:10:50.399Z,25.90
2018-10-17T00:11:50.425Z,26.30
2018-10-17T00:12:50.637Z,26.80
2018-10-17T00:13:50.448Z,27.60
2018-10-17T00:14:50.457Z,26.30
2018-10-17T00:15:50.473Z,26.00
2018-10-17T00:16:50.489Z,26.40
2018-10-17T00:17:50.498Z,26.00
2018-10-17T00:18:50.588Z,26.40
2018-10-17T00:19:50.533Z,25.80
2018-10-17T00:20:50.539Z,25.10
2018-10-17T00:21:50.580Z,26.60
2018-10-17T00:23:50.766Z,25.80
2018-10-17T00:24:50.655Z,25.30
2018-10-17T00:25:50.638Z,26.00
2018-10-17T00:26:50.620Z,25.70
2018-10-17T00:27:50.645Z,26.20
2018-10-17T00:28:50.737Z,26.50
2018-10-17T00:29:50.687Z,26.60
2018-10-17T00:30:50.804Z,26.00
2018-10-17T00:31:51.055Z,25.60
2018-10-17T00:32:51.393Z,25.70
2018-10-17T00:33:50.825Z,25.80
2018-10-17T00:34:50.903Z,25.60
2018-10-17T00:36:51.229Z,27.00
2018-10-17T00:37:50.775Z,25.70
2018-10-17T00:38:50.793Z,26.50
2018-10-17T00:39:50.812Z,26.00
2018-10-17T00:40:50.862Z,26.10
2018-10-17T00:41:50.829Z,26.50
2018-10-17T00:42:50.845Z,27.20
2018-10-17T00:43:50.862Z,26.40
2018-10-17T00:44:50.882Z,26.80
2018-10-17T00:45:50.881Z,27.10
2018-10-17T00:46:50.910Z,26.60
2018-10-17T00:47:50.923Z,27.30
2018-10-17T00:48:50.933Z,27.20
2018-10-17T00:49:50.941Z,27.20
2018-10-17T00:50:50.948Z,26.70
2018-10-17T00:51:50.967Z,26.90
2018-10-17T00:52:51.021Z,26.30
2018-10-17T00:54:51.035Z,27.90
2018-10-17T00:57:51.696Z,26.40
2018-10-17T00:58:51.967Z,27.30
2018-10-17T00:59:51.077Z,26.50
2018-10-17T01:00:51.139Z,26.40
2018-10-17T01:01:51.100Z,27.00
2018-10-17T01:04:51.609Z,27.40
2018-10-17T01:05:51.391Z,26.20
2018-10-17T01:06:51.888Z,26.90
2018-10-17T01:07:51.187Z,25.90
2018-10-17T01:08:51.197Z,25.60
2018-10-17T01:09:51.212Z,26.60
2018-10-17T01:10:51.272Z,27.10
2018-10-17T01:11:51.613Z,26.20
2018-10-17T01:12:51.442Z,26.40
2018-10-17T01:13:51.285Z,25.50
2018-10-17T01:14:51.461Z,25.70
2018-10-17T01:15:51.363Z,25.80
2018-10-17T01:16:51.306Z,26.10
2018-10-17T01:17:51.320Z,25.80
2018-10-17T01:18:51.378Z,24.30
2018-10-17T01:19:51.349Z,26.30
2018-10-17T01:20:51.365Z,26.40
2018-10-17T01:21:51.444Z,25.80
2018-10-17T01:22:51.447Z,24.90
2018-10-17T01:25:51.428Z,25.70
2018-10-17T01:26:51.445Z,25.40
2018-10-17T01:28:52.448Z,26.00
2018-10-17T01:30:51.620Z,25.20
2018-10-17T01:31:51.546Z,25.90
2018-10-17T01:32:51.534Z,26.30
2018-10-17T01:33:51.539Z,25.10
2018-10-17T01:34:51.676Z,25.80
2018-10-17T01:35:51.589Z,26.00
2018-10-17T01:36:51.833Z,27.30
2018-10-17T01:37:51.626Z,25.80
2018-10-17T01:41:51.804Z,26.50
2018-10-17T01:45:51.705Z,27.30
2018-10-17T01:46:51.936Z,26.20
2018-10-17T01:47:51.729Z,27.00
2018-10-17T01:48:51.770Z,26.50
2018-10-17T01:49:51.755Z,26.60
2018-10-17T01:50:51.788Z,26.60
2018-10-17T01:51:51.781Z,27.10
2018-10-17T01:52:51.799Z,26.50
2018-10-17T01:53:51.813Z,26.70
2018-10-17T01:54:51.857Z,25.90
2018-10-17T01:55:52.177Z,27.10
2018-10-17T01:58:52.032Z,27.00
2018-10-17T01:59:52.447Z,27.40
2018-10-17T02:02:52.937Z,26.80
2018-10-17T02:03:52.166Z,25.90
2018-10-17T02:04:52.001Z,26.50
2018-10-17T02:05:51.983Z,27.20
2018-10-17T02:06:51.999Z,26.30
2018-10-17T02:07:52.008Z,26.40
2018-10-17T02:08:52.249Z,27.00
2018-10-17T02:09:52.114Z,27.50
2018-10-17T02:10:52.622Z,26.90
2018-10-17T02:11:52.106Z,27.10
2018-10-17T02:12:52.244Z,26.50
2018-10-17T02:13:52.089Z,27.70
2018-10-17T02:14:52.340Z,26.80
2018-10-17T02:15:52.115Z,27.80
2018-10-17T02:16:52.280Z,27.60
2018-10-17T02:17:52.763Z,28.40
2018-10-17T02:18:52.198Z,27.70
2018-10-17T02:19:52.165Z,27.90
2018-10-17T02:20:52.199Z,28.90
2018-10-17T02:21:52.192Z,27.50
2018-10-17T02:22:52.210Z,29.00
2018-10-17T02:23:52.212Z,28.80
2018-10-17T02:24:52.295Z,28.40
2018-10-17T02:25:52.240Z,29.60
2018-10-17T02:26:52.408Z,29.00
2018-10-17T02:27:52.415Z,29.70
2018-10-17T02:29:52.495Z,28.40
2018-10-17T02:30:52.350Z,27.90
2018-10-17T02:31:52.443Z,27.80
2018-10-17T02:32:53.721Z,29.20
2018-10-17T02:33:52.390Z,29.10
2018-10-17T02:34:52.404Z,28.40
2018-10-17T02:35:52.539Z,27.30
2018-10-17T02:36:52.513Z,27.20
2018-10-17T02:39:52.605Z,27.80
2018-10-17T02:40:52.462Z,27.80
2018-10-17T02:41:52.453Z,27.20
2018-10-17T02:42:52.474Z,26.80
2018-10-17T02:43:52.485Z,28.40
2018-10-17T02:44:52.702Z,28.10
2018-10-17T02:45:52.503Z,28.40
2018-10-17T02:47:52.532Z,27.90
2018-10-17T02:48:52.936Z,27.30
2018-10-17T02:49:52.564Z,27.70
2018-10-17T02:50:52.572Z,27.00
2018-10-17T02:51:52.583Z,27.90
2018-10-17T02:52:53.684Z,27.50
2018-10-17T02:53:52.610Z,26.50
2018-10-17T02:54:52.660Z,26.70
2018-10-17T02:56:52.655Z,27.20
2018-10-17T02:57:52.667Z,28.30
2018-10-17T02:58:52.752Z,27.30
2018-10-17T02:59:52.799Z,28.70
2018-10-17T03:00:53.063Z,27.30
2018-10-17T03:01:52.818Z,27.80
2018-10-17T03:02:52.780Z,29.00
2018-10-17T03:03:52.746Z,27.90
2018-10-17T03:04:53.101Z,27.80
2018-10-17T03:05:53.261Z,27.70
2018-10-17T03:06:54.150Z,27.20
2018-10-17T03:07:53.490Z,27.20
2018-10-17T03:08:53.219Z,28.00
2018-10-17T03:09:52.930Z,27.60
2018-10-17T03:11:52.862Z,28.00
2018-10-17T03:12:53.760Z,28.40
2018-10-17T03:14:53.005Z,26.90
2018-10-17T03:15:52.912Z,28.10
2018-10-17T03:16:52.962Z,27.50
2018-10-17T03:17:53.172Z,28.30
2018-10-17T03:18:53.313Z,28.10
2018-10-17T03:20:52.982Z,28.80
2018-10-17T03:21:52.991Z,28.20
2018-10-17T03:22:53.012Z,27.50
2018-10-17T03:23:53.016Z,27.30
2018-10-17T03:24:53.051Z,28.10
2018-10-17T03:25:53.042Z,28.10
2018-10-17T03:27:53.109Z,27.50
2018-10-17T03:28:53.107Z,26.80
2018-10-17T03:29:53.463Z,27.10
2018-10-17T03:30:53.496Z,27.90
2018-10-17T03:31:53.123Z,27.20
2018-10-17T03:34:53.242Z,27.70
2018-10-17T03:35:53.354Z,27.60
2018-10-17T03:40:53.336Z,29.10
2018-10-17T03:41:53.894Z,27.10
2018-10-17T03:42:53.281Z,27.70
2018-10-17T03:43:53.480Z,28.50
2018-10-17T03:44:53.303Z,28.20
2018-10-17T03:45:53.783Z,27.40
2018-10-17T03:47:53.555Z,27.90
2018-10-17T03:49:53.470Z,29.30
2018-10-17T03:50:53.383Z,27.70
2018-10-17T03:51:53.389Z,27.30
2018-10-17T03:53:53.854Z,26.70
2018-10-17T03:54:54.225Z,26.60
2018-10-17T03:55:53.543Z,27.90
2018-10-17T03:56:53.456Z,28.10
2018-10-17T03:57:53.469Z,28.00
2018-10-17T03:58:53.526Z,27.70
2018-10-17T03:59:53.506Z,28.10
2018-10-17T04:02:54.060Z,28.70
2018-10-17T04:03:53.549Z,27.40
2018-10-17T04:04:53.621Z,28.60
2018-10-17T04:05:53.581Z,29.00
2018-10-17T04:06:53.607Z,27.40
2018-10-17T04:07:53.696Z,28.00
2018-10-17T04:08:54.191Z,29.70
2018-10-17T04:09:53.843Z,28.30
2018-10-17T04:10:53.667Z,29.00
2018-10-17T04:12:53.903Z,28.30
2018-10-17T04:13:53.838Z,28.70
2018-10-17T04:16:53.741Z,28.90
2018-10-17T04:17:53.736Z,28.70
2018-10-17T04:18:53.751Z,28.80
2018-10-17T04:19:53.770Z,29.00
2018-10-17T04:20:53.777Z,29.00
2018-10-17T04:21:54.415Z,28.60
2018-10-17T04:22:53.863Z,28.10
2018-10-17T04:23:53.816Z,29.30
2018-10-17T04:24:53.858Z,29.50
2018-10-17T04:25:53.895Z,29.10
2018-10-17T04:26:53.884Z,28.40
2018-10-17T04:27:54.752Z,28.50
2018-10-17T04:28:53.891Z,29.60
2018-10-17T04:29:53.899Z,29.90
2018-10-17T04:30:54.142Z,29.50
2018-10-17T04:32:54.222Z,28.70
2018-10-17T04:33:53.949Z,29.10
2018-10-17T04:34:54.420Z,29.40
2018-10-17T04:35:54.312Z,28.70
2018-10-17T04:36:54.129Z,28.80
2018-10-17T04:37:54.040Z,29.20
2018-10-17T04:38:54.024Z,27.50
2018-10-17T04:40:54.051Z,29.20
2018-10-17T04:43:54.255Z,28.70
2018-10-17T04:44:54.634Z,30.10
2018-10-17T04:45:54.435Z,29.30
2018-10-17T04:47:54.441Z,28.40
2018-10-17T04:48:55.178Z,28.60
2018-10-17T04:49:54.273Z,29.10
2018-10-17T04:50:54.206Z,28.30
2018-10-17T04:51:54.273Z,27.80
2018-10-17T04:52:54.224Z,27.00
2018-10-17T04:53:54.213Z,28.40
2018-10-17T04:54:54.288Z,29.10
2018-10-17T04:55:54.367Z,27.90
2018-10-17T04:56:54.257Z,28.30
2018-10-17T04:57:54.381Z,29.10
2018-10-17T04:58:54.306Z,28.90
2018-10-17T04:59:54.294Z,27.90
2018-10-17T05:00:54.340Z,29.30
2018-10-17T05:01:54.325Z,27.70
2018-10-17T05:02:54.336Z,28.40
2018-10-17T05:03:54.349Z,29.60
2018-10-17T05:04:54.581Z,27.60
2018-10-17T05:05:54.450Z,28.10
2018-10-17T05:06:54.552Z,28.70
2018-10-17T05:07:54.416Z,32.70
2018-10-17T05:08:55.093Z,35.00
2018-10-17T05:09:54.491Z,30.80
2018-10-17T05:10:54.712Z,28.20
2018-10-17T05:11:54.493Z,29.00
2018-10-17T05:12:54.574Z,27.90
2018-10-17T05:13:54.527Z,27.60
2018-10-17T05:14:54.577Z,28.90
2018-10-17T05:15:54.539Z,28.50
2018-10-17T05:16:54.573Z,28.80
2018-10-17T05:17:54.561Z,27.80
2018-10-17T05:18:54.589Z,27.30
2018-10-17T05:20:54.776Z,28.40
2018-10-17T05:21:55.488Z,28.40
2018-10-17T05:22:54.630Z,27.20
2018-10-17T05:23:54.613Z,28.70
2018-10-17T05:24:54.901Z,27.60
2018-10-17T05:25:54.895Z,28.20
2018-10-17T05:26:55.076Z,28.40
2018-10-17T05:27:54.829Z,27.50
2018-10-17T05:28:54.826Z,28.40
2018-10-17T05:29:54.783Z,28.30
2018-10-17T05:31:54.772Z,27.40
2018-10-17T05:32:54.788Z,29.10
2018-10-17T05:33:54.847Z,27.40
2018-10-17T05:34:55.200Z,28.10
2018-10-17T05:35:54.776Z,27.50
2018-10-17T05:36:55.387Z,28.20
2018-10-17T05:37:54.950Z,28.60
2018-10-17T05:38:55.395Z,28.50
2018-10-17T05:40:54.904Z,28.80
2018-10-17T05:42:54.934Z,28.90
2018-10-17T05:43:54.884Z,29.70
2018-10-17T05:44:54.912Z,29.50
2018-10-17T05:45:54.955Z,30.40
2018-10-17T05:46:54.928Z,29.00
2018-10-17T05:47:54.958Z,29.90
2018-10-17T05:48:55.049Z,29.10
2018-10-17T05:49:55.070Z,30.80
2018-10-17T05:50:55.760Z,28.80
2018-10-17T05:51:55.017Z,29.10
2018-10-17T05:52:55.451Z,28.40
2018-10-17T05:53:55.830Z,29.00
2018-10-17T05:54:55.098Z,29.10
2018-10-17T05:55:55.047Z,28.40
2018-10-17T05:57:56.024Z,27.80
2018-10-17T05:59:55.266Z,28.30
2018-10-17T06:00:55.188Z,27.90
2018-10-17T06:02:55.137Z,31.60
2018-10-17T06:03:55.429Z,32.80
2018-10-17T06:04:55.711Z,30.70
2018-10-17T06:05:56.062Z,29.70
2018-10-17T06:06:55.346Z,28.80
2018-10-17T06:07:55.213Z,28.30
2018-10-17T06:08:55.494Z,28.20
2018-10-17T06:09:55.289Z,28.50
2018-10-17T06:10:55.249Z,27.90
2018-10-17T06:11:55.622Z,28.60
2018-10-17T06:12:55.294Z,29.00
2018-10-17T06:13:55.387Z,29.00
2018-10-17T06:14:55.348Z,29.40
2018-10-17T06:15:55.374Z,28.30
2018-10-17T06:16:55.700Z,29.50
2018-10-17T06:17:55.327Z,28.30
2018-10-17T06:18:56.251Z,28.20
2018-10-17T06:19:55.560Z,28.80
2018-10-17T06:20:56.132Z,28.80
2018-10-17T06:21:55.430Z,29.30
2018-10-17T06:22:55.579Z,28.30
2018-10-17T06:23:55.473Z,29.30
2018-10-17T06:24:55.911Z,30.90
2018-10-17T06:25:55.436Z,30.80
2018-10-17T06:26:55.449Z,29.40
2018-10-17T06:27:55.477Z,30.30
2018-10-17T06:29:55.767Z,29.30
2018-10-17T06:30:56.575Z,29.00
2018-10-17T06:31:55.589Z,26.80
2018-10-17T06:32:55.866Z,29.30
2018-10-17T06:34:56.289Z,28.10
2018-10-17T06:35:56.937Z,27.20
2018-10-17T06:37:55.592Z,27.00
2018-10-17T06:38:55.924Z,27.20
2018-10-17T06:40:56.190Z,27.50
2018-10-17T06:41:55.752Z,27.00
2018-10-17T06:45:56.268Z,26.40
2018-10-17T06:46:55.727Z,26.20
2018-10-17T06:47:55.918Z,25.50
2018-10-17T06:48:55.804Z,26.50
2018-10-17T06:49:55.794Z,26.50
2018-10-17T06:50:55.771Z,25.70
2018-10-17T06:51:55.786Z,26.10
2018-10-17T06:52:55.800Z,25.40
2018-10-17T06:53:55.874Z,26.30
2018-10-17T06:54:55.826Z,25.20
2018-10-17T06:55:55.834Z,24.70
2018-10-17T06:56:55.845Z,24.80
2018-10-17T06:57:55.882Z,24.60
2018-10-17T06:58:55.929Z,24.40
2018-10-17T06:59:55.885Z,24.40
2018-10-17T07:00:56.012Z,23.90
2018-10-17T07:01:56.079Z,24.30
2018-10-17T07:02:55.938Z,25.00
2018-10-17T07:03:55.940Z,23.80
2018-10-17T07:04:56.036Z,23.70
2018-10-17T07:05:55.964Z,24.90
2018-10-17T07:07:57.051Z,24.30
2018-10-17T07:08:56.189Z,25.10
2018-10-17T07:10:56.218Z,24.60
2018-10-17T07:11:56.073Z,23.90
2018-10-17T07:12:56.106Z,24.20
2018-10-17T07:13:56.628Z,22.70
2018-10-17T07:14:56.227Z,23.80
2018-10-17T07:15:56.239Z,23.70
2018-10-17T07:16:56.362Z,23.70
2018-10-17T07:18:57.265Z,24.00
2018-10-17T07:19:56.156Z,23.60
2018-10-17T07:20:57.019Z,23.20
2018-10-17T07:21:56.225Z,22.80
2018-10-17T07:22:56.504Z,22.50
2018-10-17T07:23:56.285Z,22.30
2018-10-17T07:24:56.238Z,22.80
2018-10-17T07:25:56.644Z,22.60
2018-10-17T07:27:56.738Z,22.90
2018-10-17T07:29:56.353Z,22.50
2018-10-17T07:32:57.568Z,23.30
2018-10-17T07:33:57.069Z,23.40
2018-10-17T07:35:56.552Z,22.90
2018-10-17T07:36:57.924Z,22.90
2018-10-17T07:37:56.715Z,23.10
2018-10-17T07:38:56.421Z,24.10
2018-10-17T07:39:56.607Z,24.50
2018-10-17T07:40:56.444Z,24.60
2018-10-17T07:41:56.714Z,23.10
2018-10-17T07:42:56.475Z,22.00
2018-10-17T07:43:57.368Z,22.90
2018-10-17T07:44:56.487Z,22.50
2018-10-17T07:45:56.533Z,22.50
2018-10-17T07:46:56.588Z,22.00
2018-10-17T07:47:56.731Z,21.60
2018-10-17T07:48:57.275Z,22.40
2018-10-17T07:49:57.388Z,21.70
2018-10-17T07:50:57.184Z,21.80
2018-10-17T07:51:57.004Z,22.10
2018-10-17T07:52:56.772Z,21.60
2018-10-17T07:53:57.114Z,20.60
2018-10-17T07:54:56.633Z,21.50
2018-10-17T07:55:56.666Z,20.50
2018-10-17T07:56:56.834Z,21.30
2018-10-17T07:57:56.847Z,21.00
2018-10-17T07:58:56.939Z,21.50
2018-10-17T07:59:56.894Z,20.80
2018-10-17T08:00:56.762Z,20.10
2018-10-17T08:01:56.735Z,20.90
2018-10-17T08:02:56.744Z,19.20
2018-10-17T08:03:56.750Z,19.50
2018-10-17T08:05:56.905Z,20.00
2018-10-17T08:06:56.828Z,18.00
2018-10-17T08:07:57.800Z,19.30
2018-10-17T08:08:56.879Z,18.40
2018-10-17T08:09:56.832Z,18.90
2018-10-17T08:11:56.924Z,19.40
2018-10-17T08:12:57.329Z,18.00
2018-10-17T08:13:57.179Z,19.30
2018-10-17T08:14:56.906Z,18.80
2018-10-17T08:16:56.995Z,18.40
2018-10-17T08:17:57.102Z,18.40
2018-10-17T08:18:56.951Z,19.50
2018-10-17T08:19:57.078Z,18.50
2018-10-17T08:20:56.995Z,19.10
2018-10-17T08:22:57.011Z,18.20
2018-10-17T08:24:57.077Z,19.30
2018-10-17T08:25:57.051Z,19.10
2018-10-17T08:26:57.064Z,19.30
2018-10-17T08:27:57.082Z,19.50
2018-10-17T08:28:57.708Z,19.50
2018-10-17T08:29:57.251Z,19.00
2018-10-17T08:30:57.179Z,19.50
2018-10-17T08:31:57.133Z,19.00
2018-10-17T08:32:57.519Z,18.60
2018-10-17T08:34:58.489Z,19.10
2018-10-17T08:35:57.337Z,19.20
2018-10-17T08:36:57.956Z,19.40
2018-10-17T08:37:57.469Z,18.80
2018-10-17T08:38:57.311Z,19.00
2018-10-17T08:39:57.245Z,18.40
2018-10-17T08:40:57.329Z,19.30
2018-10-17T08:41:57.820Z,19.80
2018-10-17T08:43:57.479Z,19.60
2018-10-17T08:44:57.382Z,19.90
2018-10-17T08:45:57.775Z,19.40
2018-10-17T08:46:57.782Z,19.90
2018-10-17T08:47:57.363Z,20.00
2018-10-17T08:49:57.441Z,20.20
2018-10-17T08:50:57.508Z,18.70
2018-10-17T08:51:57.450Z,19.00
2018-10-17T08:52:57.466Z,18.50
2018-10-17T08:53:57.444Z,18.40
2018-10-17T08:54:57.453Z,18.90
2018-10-17T08:55:57.533Z,20.40
2018-10-17T08:56:57.489Z,19.90
2018-10-17T08:57:57.604Z,19.00
2018-10-17T08:58:57.550Z,18.40
2018-10-17T08:59:57.540Z,18.90
2018-10-17T09:00:57.562Z,18.30
2018-10-17T09:01:57.868Z,17.70
2018-10-17T09:03:57.626Z,16.90
2018-10-17T09:04:57.594Z,17.10
2018-10-17T09:05:57.735Z,16.00
2018-10-17T09:06:57.621Z,16.10
2018-10-17T09:07:57.815Z,14.90
2018-10-17T09:08:57.659Z,14.80
2018-10-17T09:09:57.669Z,14.70
2018-10-17T09:10:57.677Z,13.90
2018-10-17T09:11:57.726Z,13.20
2018-10-17T09:12:57.708Z,12.50
2018-10-17T09:13:58.586Z,12.80
2018-10-17T09:14:57.744Z,12.30
2018-10-17T09:15:57.815Z,11.80
2018-10-17T09:16:58.103Z,11.50
2018-10-17T09:17:57.824Z,11.80
2018-10-17T09:18:57.804Z,11.30
2018-10-17T09:19:58.132Z,11.50
2018-10-17T09:21:58.171Z,11.40
2018-10-17T09:22:58.236Z,10.80
2018-10-17T09:23:57.989Z,11.00
2018-10-17T09:25:57.893Z,10.60
2018-10-17T09:26:58.062Z,10.80
2018-10-17T09:27:58.476Z,11.40
2018-10-17T09:28:57.957Z,10.80
2018-10-17T09:29:57.956Z,11.00
2018-10-17T09:30:58.316Z,10.50
2018-10-17T09:31:58.430Z,11.00
2018-10-17T09:32:58.044Z,10.90
2018-10-17T09:33:58.454Z,12.40
2018-10-17T09:35:58.137Z,12.00
2018-10-17T09:36:58.233Z,12.10
2018-10-17T09:37:58.573Z,12.40
2018-10-17T09:38:58.208Z,12.80
2018-10-17T09:39:59.182Z,12.20
2018-10-17T09:40:58.147Z,11.80
2018-10-17T09:41:58.531Z,12.50
2018-10-17T09:42:58.443Z,12.20
2018-10-17T09:43:58.149Z,12.00
2018-10-17T09:44:58.162Z,12.50
2018-10-17T09:45:58.198Z,11.80
2018-10-17T09:46:58.193Z,11.90
2018-10-17T09:47:58.808Z,12.00
2018-10-17T09:48:58.236Z,12.60
2018-10-17T09:49:58.910Z,12.40
2018-10-17T09:50:58.573Z,12.20
2018-10-17T09:51:58.334Z,12.80
2018-10-17T09:52:58.288Z,11.90
2018-10-17T09:53:58.308Z,12.30
2018-10-17T09:54:58.807Z,11.80
2018-10-17T09:55:58.332Z,12.70
2018-10-17T09:56:58.335Z,12.10
2018-10-17T09:57:58.461Z,14.00
2018-10-17T09:58:58.449Z,12.70
2018-10-17T09:59:58.667Z,13.10
2018-10-17T10:00:58.593Z,12.70
2018-10-17T10:01:58.425Z,12.80
2018-10-17T10:02:58.437Z,12.90
2018-10-17T10:03:58.459Z,13.50
2018-10-17T10:04:58.497Z,13.60
2018-10-17T10:05:58.621Z,13.20
2018-10-17T10:06:58.480Z,13.60
2018-10-17T10:07:58.494Z,12.90
2018-10-17T10:08:58.523Z,13.40
2018-10-17T10:09:58.539Z,13.50
2018-10-17T10:10:59.484Z,12.70
2018-10-17T10:11:58.588Z,12.60
2018-10-17T10:14:59.566Z,12.70
2018-10-17T10:15:58.623Z,12.70
2018-10-17T10:16:59.607Z,13.60
2018-10-17T10:17:58.637Z,12.90
2018-10-17T10:18:59.556Z,12.90
2018-10-17T10:19:58.779Z,12.60
2018-10-17T10:20:58.907Z,12.70
2018-10-17T10:21:58.898Z,12.30
2018-10-17T10:22:58.845Z,12.90
2018-10-17T10:23:59.417Z,13.30
2018-10-17T10:24:59.251Z,12.70
2018-10-17T10:25:59.139Z,13.10
2018-10-17T10:26:58.933Z,13.50
2018-10-17T10:27:58.981Z,13.20
2018-10-17T10:28:59.229Z,12.70
2018-10-17T10:29:59.337Z,13.30
2018-10-17T10:30:59.901Z,13.40
2018-10-17T10:31:59.283Z,14.00
2018-10-17T10:32:59.449Z,14.00
2018-10-17T10:33:59.237Z,13.80
2018-10-17T10:34:59.203Z,13.40
2018-10-17T10:35:59.995Z,13.70
2018-10-17T10:37:02.954Z,14.20
2018-10-17T10:37:59.092Z,13.60
2018-10-17T10:38:59.137Z,14.10
2018-10-17T10:39:58.997Z,14.30
2018-10-17T10:40:59.395Z,13.90
2018-10-17T10:41:59.233Z,14.70
2018-10-17T10:43:59.210Z,13.80
2018-10-17T10:44:59.839Z,14.10
2018-10-17T10:45:59.367Z,14.40
2018-10-17T10:46:59.125Z,14.20
2018-10-17T10:47:59.347Z,13.80
2018-10-17T10:48:59.123Z,15.00
2018-10-17T10:49:59.181Z,14.20
2018-10-17T10:50:59.709Z,15.20
2018-10-17T10:51:59.426Z,13.70
2018-10-17T10:53:59.245Z,14.60
2018-10-17T10:54:59.186Z,14.60
2018-10-17T10:55:59.240Z,14.80
2018-10-17T10:56:59.249Z,13.70
2018-10-17T10:57:59.398Z,13.90
2018-10-17T10:58:59.300Z,14.00
2018-10-17T10:59:59.430Z,13.50
2018-10-17T11:00:59.628Z,13.60
2018-10-17T11:01:59.449Z,13.50
2018-10-17T11:03:59.441Z,13.20
2018-10-17T11:05:59.908Z,13.60
2018-10-17T11:07:00.372Z,14.10
2018-10-17T11:08:59.428Z,13.70
2018-10-17T11:10:00.202Z,13.70
2018-10-17T11:11:00.080Z,14.40
2018-10-17T11:13:59.894Z,13.70
2018-10-17T11:14:59.991Z,13.90
2018-10-17T11:15:59.506Z,14.10
2018-10-17T11:17:00.554Z,13.50
2018-10-17T11:17:59.625Z,14.40
2018-10-17T11:19:00.502Z,14.80
2018-10-17T11:20:59.663Z,13.70
2018-10-17T11:21:59.811Z,14.20
2018-10-17T11:23:00.178Z,14.70
2018-10-17T11:24:00.896Z,14.10
2018-10-17T11:24:59.678Z,13.50
2018-10-17T11:25:59.671Z,13.80
2018-10-17T11:27:00.148Z,14.10
2018-10-17T11:27:59.658Z,13.10
2018-10-17T11:29:59.789Z,12.80
2018-10-17T11:30:59.905Z,12.80
2018-10-17T11:31:59.945Z,12.50
2018-10-17T11:32:59.746Z,12.00
2018-10-17T11:33:59.895Z,12.70
2018-10-17T11:35:00.322Z,12.50
2018-10-17T11:35:59.797Z,12.20
2018-10-17T11:36:59.799Z,12.50
2018-10-17T11:37:59.894Z,12.90
2018-10-17T11:38:59.861Z,12.80
2018-10-17T11:40:00.409Z,12.70
2018-10-17T11:40:59.917Z,13.20
2018-10-17T11:41:59.948Z,13.00
2018-10-17T11:42:59.885Z,12.10
2018-10-17T11:43:59.899Z,12.50
2018-10-17T11:46:00.296Z,13.00
2018-10-17T11:46:59.987Z,12.40
2018-10-17T11:48:00.001Z,13.40
2018-10-17T11:49:00.071Z,12.20
2018-10-17T11:50:00.006Z,13.20
2018-10-17T11:51:00.075Z,12.50
2018-10-17T11:52:00.089Z,12.50
2018-10-17T11:53:00.055Z,12.70
2018-10-17T11:54:00.152Z,12.20
2018-10-17T11:55:00.072Z,12.50
2018-10-17T11:56:00.091Z,12.60
2018-10-17T11:57:00.159Z,12.20
2018-10-17T11:58:00.123Z,12.20
2018-10-17T11:59:00.158Z,13.30
2018-10-17T12:00:00.159Z,13.10
2018-10-17T12:01:00.168Z,12.60
2018-10-17T12:02:00.184Z,12.90
2018-10-17T12:03:00.258Z,11.90
2018-10-17T12:04:00.517Z,11.80
2018-10-17T12:05:00.410Z,11.70
2018-10-17T12:06:00.354Z,12.30
2018-10-17T12:07:00.260Z,12.00
2018-10-17T12:08:00.273Z,11.70
2018-10-17T12:09:00.307Z,11.70
2018-10-17T12:10:00.307Z,11.90
2018-10-17T12:11:00.325Z,12.70
2018-10-17T12:12:00.429Z,12.30
2018-10-17T12:13:00.357Z,11.80
2018-10-17T12:14:00.426Z,13.10
2018-10-17T12:15:00.391Z,11.80
2018-10-17T12:17:02.127Z,12.00
2018-10-17T12:18:00.461Z,12.30
2018-10-17T12:19:00.465Z,12.00
2018-10-17T12:20:00.531Z,12.10
2018-10-17T12:21:00.543Z,12.70
2018-10-17T12:22:00.491Z,12.10
2018-10-17T12:23:00.562Z,12.30
2018-10-17T12:24:00.704Z,12.10
2018-10-17T12:25:00.621Z,12.70
2018-10-17T12:26:01.892Z,12.90
2018-10-17T12:27:02.585Z,12.60
2018-10-17T12:29:00.730Z,12.90
2018-10-17T12:30:01.075Z,12.00
2018-10-17T12:31:00.992Z,11.70
2018-10-17T12:32:01.465Z,11.90
2018-10-17T12:33:01.259Z,12.40
2018-10-17T12:34:01.323Z,12.30
2018-10-17T12:35:00.755Z,12.60
2018-10-17T12:36:00.838Z,12.50
2018-10-17T12:37:00.740Z,13.00
2018-10-17T12:38:00.728Z,14.30
2018-10-17T12:39:01.691Z,13.50
2018-10-17T12:40:00.820Z,13.70
2018-10-17T12:41:01.371Z,14.00
2018-10-17T12:42:00.850Z,13.90
2018-10-17T12:43:01.566Z,14.50
2018-10-17T12:46:01.742Z,14.10
2018-10-17T12:47:00.963Z,13.40
2018-10-17T12:49:00.933Z,13.50
2018-10-17T12:50:02.484Z,13.70
2018-10-17T12:52:01.709Z,14.30
2018-10-17T12:53:01.220Z,14.00
2018-10-17T12:54:00.973Z,14.90
2018-10-17T12:56:01.052Z,13.30
2018-10-17T12:57:01.263Z,14.40
2018-10-17T12:58:02.591Z,13.90
2018-10-17T12:59:02.658Z,15.40
2018-10-17T13:00:01.894Z,14.50
2018-10-17T13:01:01.499Z,13.50
2018-10-17T13:02:01.912Z,14.60
2018-10-17T13:03:01.813Z,13.90
2018-10-17T13:04:01.282Z,13.60
2018-10-17T13:05:01.532Z,13.50
2018-10-17T13:06:01.163Z,13.80
2018-10-17T13:07:01.989Z,14.40
2018-10-17T13:08:01.276Z,13.20
2018-10-17T13:09:03.782Z,13.40
2018-10-17T13:10:01.264Z,13.50
2018-10-17T13:11:01.449Z,13.80
2018-10-17T13:12:02.058Z,13.00
2018-10-17T13:13:01.322Z,13.20
2018-10-17T13:14:01.311Z,12.90
2018-10-17T13:15:02.479Z,14.40
2018-10-17T13:16:02.430Z,14.40
2018-10-17T13:17:01.883Z,13.90
2018-10-17T13:19:01.583Z,13.80
2018-10-17T13:20:01.412Z,12.70
2018-10-17T13:21:01.430Z,13.60
2018-10-17T13:22:01.658Z,12.20
2018-10-17T13:24:01.637Z,12.20
2018-10-17T13:25:01.646Z,13.10
2018-10-17T13:27:01.505Z,12.00
2018-10-17T13:28:01.526Z,12.30
2018-10-17T13:29:01.539Z,12.10
2018-10-17T13:32:03.373Z,14.10
2018-10-17T13:33:01.683Z,13.40
2018-10-17T13:34:01.633Z,14.80
2018-10-17T13:35:03.095Z,14.40
2018-10-17T13:36:02.728Z,13.60
2018-10-17T13:37:02.012Z,14.50
2018-10-17T13:38:02.026Z,13.90
2018-10-17T13:40:01.714Z,14.40
2018-10-17T13:41:01.775Z,14.20
2018-10-17T13:42:01.831Z,15.20
2018-10-17T13:44:01.923Z,14.00
2018-10-17T13:46:01.881Z,14.40
2018-10-17T13:50:02.272Z,13.70
2018-10-17T13:51:01.876Z,13.80
2018-10-17T13:52:01.894Z,13.70
2018-10-17T13:53:01.970Z,14.70
2018-10-17T13:54:01.922Z,13.90
2018-10-17T13:55:02.002Z,14.10
2018-10-17T13:56:01.961Z,14.40
2018-10-17T13:57:01.981Z,15.10
2018-10-17T13:58:02.041Z,15.00
2018-10-17T13:59:02.401Z,13.80
2018-10-17T14:00:02.676Z,13.80
2018-10-17T14:01:02.105Z,13.50
2018-10-17T14:02:02.049Z,14.40
2018-10-17T14:03:02.066Z,14.50
2018-10-17T14:04:02.146Z,13.40
2018-10-17T14:05:02.114Z,14.00
2018-10-17T14:06:02.406Z,14.50
2018-10-17T14:07:02.202Z,14.20
2018-10-17T14:08:02.206Z,14.80
2018-10-17T14:09:02.423Z,14.80
2018-10-17T14:10:02.191Z,14.70
2018-10-17T14:11:02.492Z,14.40
2018-10-17T14:12:02.928Z,14.10
2018-10-17T14:13:02.634Z,14.60
2018-10-17T14:15:02.757Z,14.20
2018-10-17T14:16:02.823Z,13.90
2018-10-17T14:17:02.330Z,14.30
2018-10-17T14:18:02.355Z,15.30
2018-10-17T14:19:02.629Z,14.80
2018-10-17T14:20:04.222Z,14.10
2018-10-17T14:21:02.441Z,13.50
2018-10-17T14:22:02.371Z,13.90
2018-10-17T14:23:02.426Z,14.20
2018-10-17T14:24:03.367Z,14.30
2018-10-17T14:25:02.481Z,13.20
2018-10-17T14:26:02.691Z,13.90
2018-10-17T14:27:02.523Z,12.70
2018-10-17T14:28:02.478Z,12.80
2018-10-17T14:29:02.833Z,12.70
2018-10-17T14:30:02.604Z,12.40
2018-10-17T14:31:03.183Z,13.30
2018-10-17T14:33:02.626Z,12.30
2018-10-17T14:34:02.696Z,11.90
2018-10-17T14:35:03.852Z,12.10
2018-10-17T14:36:02.765Z,11.80
2018-10-17T14:37:02.608Z,12.80
2018-10-17T14:38:02.814Z,11.90
2018-10-17T14:39:02.681Z,11.90
2018-10-17T14:40:02.679Z,12.00
2018-10-17T14:41:02.746Z,12.50
2018-10-17T14:42:02.934Z,12.40
2018-10-17T14:43:03.027Z,11.90
2018-10-17T14:44:02.767Z,11.40
2018-10-17T14:45:02.849Z,12.10
2018-10-17T14:46:02.855Z,12.20
2018-10-17T14:47:02.915Z,11.80
2018-10-17T14:48:03.006Z,13.00
2018-10-17T14:49:04.197Z,12.50
2018-10-17T14:50:02.839Z,12.40